sensor_id;sensor_type;location;lat;lon;timestamp;temperature;humidity
12887;DHT22;6511;49.746;6.094;2022-08-02T00:01:34;16.70;99.90
12887;DHT22;6511;49.746;6.094;2022-08-02T00:03:59;16.70;99.90
12887;DHT22;6511;49.746;6.094;2022-08-02T00:06:25;16.80;99.90
12887;DHT22;6511;49.746;6.094;2022-08-02T00:08:51;16.80;99.90
12887;DHT22;6511;49.746;6.094;2022-08-02T00:11:18;16.70;99.90
12887;DHT22;6511;49.746;6.094;2022-08-02T00:13:43;16.80;99.90
12887;DHT22;6511;49.746;6.094;2022-08-02T00:16:09;16.80;99.90
12887;DHT22;6511;49.746;6.094;2022-08-02T00:18:35;16.70;99.90
12887;DHT22;6511;49.746;6.094;2022-08-02T00:21:00;16.70;99.90
12887;DHT22;6511;49.746;6.094;2022-08-02T00:23:26;16.70;99.90
12887;DHT22;6511;49.746;6.094;2022-08-02T00:25:51;16.70;99.90
12887;DHT22;6511;49.746;6.094;2022-08-02T00:28:17;16.80;99.90
12887;DHT22;6511;49.746;6.094;2022-08-02T00:30:42;16.60;99.90
12887;DHT22;6511;49.746;6.094;2022-08-02T00:33:08;16.80;99.90
12887;DHT22;6511;49.746;6.094;2022-08-02T00:35:34;16.80;99.90
12887;DHT22;6511;49.746;6.094;2022-08-02T00:37:59;16.60;99.90
12887;DHT22;6511;49.746;6.094;2022-08-02T00:40:25;16.50;99.90
12887;DHT22;6511;49.746;6.094;2022-08-02T00:45:48;16.70;99.90
12887;DHT22;6511;49.746;6.094;2022-08-02T00:48:14;16.60;99.90
12887;DHT22;6511;49.746;6.094;2022-08-02T00:50:40;16.60;99.90
12887;DHT22;6511;49.746;6.094;2022-08-02T00:53:06;16.70;99.90
12887;DHT22;6511;49.746;6.094;2022-08-02T00:55:33;16.70;99.90
12887;DHT22;6511;49.746;6.094;2022-08-02T00:57:59;16.70;99.90
12887;DHT22;6511;49.746;6.094;2022-08-02T01:00:24;16.70;99.90
12887;DHT22;6511;49.746;6.094;2022-08-02T01:02:50;16.50;99.90
12887;DHT22;6511;49.746;6.094;2022-08-02T01:05:16;16.70;99.90
12887;DHT22;6511;49.746;6.094;2022-08-02T01:07:41;16.60;99.90
12887;DHT22;6511;49.746;6.094;2022-08-02T01:10:07;16.50;99.90
12887;DHT22;6511;49.746;6.094;2022-08-02T01:12:33;16.60;99.90
12887;DHT22;6511;49.746;6.094;2022-08-02T01:15:04;16.60;99.90
12887;DHT22;6511;49.746;6.094;2022-08-02T01:28:01;16.40;99.90
12887;DHT22;6511;49.746;6.094;2022-08-02T01:30:27;16.40;99.90
12887;DHT22;6511;49.746;6.094;2022-08-02T01:32:54;16.50;99.90
12887;DHT22;6511;49.746;6.094;2022-08-02T01:35:22;16.60;99.90
12887;DHT22;6511;49.746;6.094;2022-08-02T01:37:54;16.60;99.90
12887;DHT22;6511;49.746;6.094;2022-08-02T01:40:21;16.50;99.90
12887;DHT22;6511;49.746;6.094;2022-08-02T01:42:48;16.50;99.90
12887;DHT22;6511;49.746;6.094;2022-08-02T01:45:15;16.50;99.90
12887;DHT22;6511;49.746;6.094;2022-08-02T01:47:42;16.40;99.90
12887;DHT22;6511;49.746;6.094;2022-08-02T01:50:10;16.40;99.90
12887;DHT22;6511;49.746;6.094;2022-08-02T01:52:37;16.50;99.90
12887;DHT22;6511;49.746;6.094;2022-08-02T01:55:08;16.30;99.90
12887;DHT22;6511;49.746;6.094;2022-08-02T01:57:36;16.30;99.90
12887;DHT22;6511;49.746;6.094;2022-08-02T02:00:04;16.40;99.90
12887;DHT22;6511;49.746;6.094;2022-08-02T02:02:30;16.30;99.90
12887;DHT22;6511;49.746;6.094;2022-08-02T02:04:56;16.30;99.90
12887;DHT22;6511;49.746;6.094;2022-08-02T02:07:22;16.30;99.90
12887;DHT22;6511;49.746;6.094;2022-08-02T02:09:48;16.10;99.90
12887;DHT22;6511;49.746;6.094;2022-08-02T02:12:14;16.30;99.90
12887;DHT22;6511;49.746;6.094;2022-08-02T02:14:41;16.40;99.90
12887;DHT22;6511;49.746;6.094;2022-08-02T02:17:08;16.20;99.90
12887;DHT22;6511;49.746;6.094;2022-08-02T02:19:34;16.20;99.90
12887;DHT22;6511;49.746;6.094;2022-08-02T02:22:00;16.10;99.90
12887;DHT22;6511;49.746;6.094;2022-08-02T02:24:26;16.10;99.90
12887;DHT22;6511;49.746;6.094;2022-08-02T02:26:51;16.10;99.90
12887;DHT22;6511;49.746;6.094;2022-08-02T02:29:17;16.10;99.90
12887;DHT22;6511;49.746;6.094;2022-08-02T02:31:44;16.10;99.90
12887;DHT22;6511;49.746;6.094;2022-08-02T02:34:13;16.00;99.90
12887;DHT22;6511;49.746;6.094;2022-08-02T02:36:40;15.80;99.90
12887;DHT22;6511;49.746;6.094;2022-08-02T02:39:06;15.80;99.90
12887;DHT22;6511;49.746;6.094;2022-08-02T02:41:33;15.80;99.90
12887;DHT22;6511;49.746;6.094;2022-08-02T02:44:01;15.80;99.90
12887;DHT22;6511;49.746;6.094;2022-08-02T02:46:30;15.70;99.90
12887;DHT22;6511;49.746;6.094;2022-08-02T02:48:56;15.80;99.90
12887;DHT22;6511;49.746;6.094;2022-08-02T02:51:22;15.90;99.90
12887;DHT22;6511;49.746;6.094;2022-08-02T02:53:48;15.90;99.90
12887;DHT22;6511;49.746;6.094;2022-08-02T02:56:18;15.90;99.90
12887;DHT22;6511;49.746;6.094;2022-08-02T02:58:44;15.90;99.90
12887;DHT22;6511;49.746;6.094;2022-08-02T03:01:09;15.70;99.90
12887;DHT22;6511;49.746;6.094;2022-08-02T03:04:03;15.80;99.90
12887;DHT22;6511;49.746;6.094;2022-08-02T03:06:29;15.90;99.90
12887;DHT22;6511;49.746;6.094;2022-08-02T03:08:55;15.90;99.90
12887;DHT22;6511;49.746;6.094;2022-08-02T03:11:21;15.80;99.90
12887;DHT22;6511;49.746;6.094;2022-08-02T03:13:47;15.70;99.90
12887;DHT22;6511;49.746;6.094;2022-08-02T03:16:13;15.80;99.90
12887;DHT22;6511;49.746;6.094;2022-08-02T03:18:39;15.70;99.90
12887;DHT22;6511;49.746;6.094;2022-08-02T03:21:06;15.60;99.90
12887;DHT22;6511;49.746;6.094;2022-08-02T03:23:32;15.50;99.90
12887;DHT22;6511;49.746;6.094;2022-08-02T03:25:58;15.50;99.90
12887;DHT22;6511;49.746;6.094;2022-08-02T03:28:24;15.30;99.90
12887;DHT22;6511;49.746;6.094;2022-08-02T03:30:49;15.30;99.90
12887;DHT22;6511;49.746;6.094;2022-08-02T03:33:15;15.40;99.90
12887;DHT22;6511;49.746;6.094;2022-08-02T03:35:41;15.50;99.90
12887;DHT22;6511;49.746;6.094;2022-08-02T03:38:07;15.40;99.90
12887;DHT22;6511;49.746;6.094;2022-08-02T03:40:34;15.40;99.90
12887;DHT22;6511;49.746;6.094;2022-08-02T03:43:00;15.40;99.90
12887;DHT22;6511;49.746;6.094;2022-08-02T03:45:26;15.30;99.90
12887;DHT22;6511;49.746;6.094;2022-08-02T03:47:52;15.10;99.90
12887;DHT22;6511;49.746;6.094;2022-08-02T03:50:18;15.00;99.90
12887;DHT22;6511;49.746;6.094;2022-08-02T03:52:44;14.90;99.90
12887;DHT22;6511;49.746;6.094;2022-08-02T03:55:10;14.90;99.90
12887;DHT22;6511;49.746;6.094;2022-08-02T03:57:45;14.80;99.90
12887;DHT22;6511;49.746;6.094;2022-08-02T04:00:11;14.70;99.90
12887;DHT22;6511;49.746;6.094;2022-08-02T04:02:37;14.60;99.90
12887;DHT22;6511;49.746;6.094;2022-08-02T04:05:03;14.70;99.90
12887;DHT22;6511;49.746;6.094;2022-08-02T04:07:29;14.70;99.90
12887;DHT22;6511;49.746;6.094;2022-08-02T04:09:54;14.70;99.90
12887;DHT22;6511;49.746;6.094;2022-08-02T04:12:20;14.60;99.90
12887;DHT22;6511;49.746;6.094;2022-08-02T04:14:45;14.50;99.90
12887;DHT22;6511;49.746;6.094;2022-08-02T04:17:11;14.40;99.90
12887;DHT22;6511;49.746;6.094;2022-08-02T04:22:03;14.50;99.90
12887;DHT22;6511;49.746;6.094;2022-08-02T04:24:30;14.60;99.90
12887;DHT22;6511;49.746;6.094;2022-08-02T04:26:59;14.50;99.90
12887;DHT22;6511;49.746;6.094;2022-08-02T04:29:25;14.40;99.90
12887;DHT22;6511;49.746;6.094;2022-08-02T04:31:51;14.50;99.90
12887;DHT22;6511;49.746;6.094;2022-08-02T04:34:17;14.50;99.90
12887;DHT22;6511;49.746;6.094;2022-08-02T04:36:43;14.50;99.90
12887;DHT22;6511;49.746;6.094;2022-08-02T04:39:09;14.50;99.90
12887;DHT22;6511;49.746;6.094;2022-08-02T04:41:41;14.50;99.90
12887;DHT22;6511;49.746;6.094;2022-08-02T04:44:07;14.60;99.90
12887;DHT22;6511;49.746;6.094;2022-08-02T04:46:36;14.50;99.90
12887;DHT22;6511;49.746;6.094;2022-08-02T04:49:02;14.50;99.90
12887;DHT22;6511;49.746;6.094;2022-08-02T04:51:27;14.40;99.90
12887;DHT22;6511;49.746;6.094;2022-08-02T04:53:53;14.40;99.90
12887;DHT22;6511;49.746;6.094;2022-08-02T04:56:18;14.40;99.90
12887;DHT22;6511;49.746;6.094;2022-08-02T04:58:44;14.50;99.90
12887;DHT22;6511;49.746;6.094;2022-08-02T05:01:09;14.50;99.90
12887;DHT22;6511;49.746;6.094;2022-08-02T05:03:35;14.50;99.90
12887;DHT22;6511;49.746;6.094;2022-08-02T05:06:00;14.50;99.90
12887;DHT22;6511;49.746;6.094;2022-08-02T05:08:26;14.50;99.90
12887;DHT22;6511;49.746;6.094;2022-08-02T05:10:52;14.50;99.90
12887;DHT22;6511;49.746;6.094;2022-08-02T05:13:17;14.40;99.90
12887;DHT22;6511;49.746;6.094;2022-08-02T05:15:43;14.50;99.90
12887;DHT22;6511;49.746;6.094;2022-08-02T05:18:08;14.50;99.90
12887;DHT22;6511;49.746;6.094;2022-08-02T05:20:34;14.60;99.90
12887;DHT22;6511;49.746;6.094;2022-08-02T05:22:59;14.70;99.90
12887;DHT22;6511;49.746;6.094;2022-08-02T05:25:25;14.80;99.90
12887;DHT22;6511;49.746;6.094;2022-08-02T05:27:51;14.70;99.90
12887;DHT22;6511;49.746;6.094;2022-08-02T05:30:16;14.80;99.90
12887;DHT22;6511;49.746;6.094;2022-08-02T05:32:48;14.90;99.90
12887;DHT22;6511;49.746;6.094;2022-08-02T05:35:22;14.80;99.90
12887;DHT22;6511;49.746;6.094;2022-08-02T05:37:48;14.90;99.90
12887;DHT22;6511;49.746;6.094;2022-08-02T05:40:14;14.90;99.90
12887;DHT22;6511;49.746;6.094;2022-08-02T05:42:40;14.90;99.90
12887;DHT22;6511;49.746;6.094;2022-08-02T05:45:05;14.90;99.90
12887;DHT22;6511;49.746;6.094;2022-08-02T05:47:31;14.90;99.90
12887;DHT22;6511;49.746;6.094;2022-08-02T05:49:57;15.10;99.90
12887;DHT22;6511;49.746;6.094;2022-08-02T05:52:26;15.10;99.90
12887;DHT22;6511;49.746;6.094;2022-08-02T05:55:10;15.00;99.90
12887;DHT22;6511;49.746;6.094;2022-08-02T06:00:07;15.10;99.90
12887;DHT22;6511;49.746;6.094;2022-08-02T06:07:40;15.20;99.90
12887;DHT22;6511;49.746;6.094;2022-08-02T06:10:06;15.30;99.90
12887;DHT22;6511;49.746;6.094;2022-08-02T06:12:32;15.30;99.90
12887;DHT22;6511;49.746;6.094;2022-08-02T06:15:00;15.40;99.90
12887;DHT22;6511;49.746;6.094;2022-08-02T06:17:27;15.40;99.90
12887;DHT22;6511;49.746;6.094;2022-08-02T06:19:54;15.40;99.90
12887;DHT22;6511;49.746;6.094;2022-08-02T06:22:20;15.50;99.90
12887;DHT22;6511;49.746;6.094;2022-08-02T06:24:49;15.60;99.90
12887;DHT22;6511;49.746;6.094;2022-08-02T06:27:16;15.60;99.90
12887;DHT22;6511;49.746;6.094;2022-08-02T06:29:43;15.60;99.90
12887;DHT22;6511;49.746;6.094;2022-08-02T06:32:09;15.60;99.90
12887;DHT22;6511;49.746;6.094;2022-08-02T06:34:40;15.60;99.90
12887;DHT22;6511;49.746;6.094;2022-08-02T06:39:51;15.60;99.90
12887;DHT22;6511;49.746;6.094;2022-08-02T06:42:20;15.70;99.90
12887;DHT22;6511;49.746;6.094;2022-08-02T06:44:50;15.80;99.90
12887;DHT22;6511;49.746;6.094;2022-08-02T06:47:16;15.90;99.90
12887;DHT22;6511;49.746;6.094;2022-08-02T06:49:41;15.90;99.90
12887;DHT22;6511;49.746;6.094;2022-08-02T06:52:07;16.00;99.90
12887;DHT22;6511;49.746;6.094;2022-08-02T06:54:32;16.10;99.90
12887;DHT22;6511;49.746;6.094;2022-08-02T06:57:00;16.20;99.90
12887;DHT22;6511;49.746;6.094;2022-08-02T06:59:25;16.30;99.90
12887;DHT22;6511;49.746;6.094;2022-08-02T07:01:51;16.40;99.90
12887;DHT22;6511;49.746;6.094;2022-08-02T07:04:16;16.40;99.90
12887;DHT22;6511;49.746;6.094;2022-08-02T07:06:42;16.40;99.90
12887;DHT22;6511;49.746;6.094;2022-08-02T07:09:07;16.40;99.90
12887;DHT22;6511;49.746;6.094;2022-08-02T07:11:33;16.40;99.90
12887;DHT22;6511;49.746;6.094;2022-08-02T07:13:58;16.60;99.90
12887;DHT22;6511;49.746;6.094;2022-08-02T07:16:24;16.60;99.90
12887;DHT22;6511;49.746;6.094;2022-08-02T07:18:49;16.70;99.90
12887;DHT22;6511;49.746;6.094;2022-08-02T07:21:15;16.60;99.90
12887;DHT22;6511;49.746;6.094;2022-08-02T07:23:40;16.60;99.90
12887;DHT22;6511;49.746;6.094;2022-08-02T07:26:06;16.70;99.90
12887;DHT22;6511;49.746;6.094;2022-08-02T07:28:32;16.80;99.90
12887;DHT22;6511;49.746;6.094;2022-08-02T07:30:57;17.00;99.90
12887;DHT22;6511;49.746;6.094;2022-08-02T07:33:23;17.10;99.90
12887;DHT22;6511;49.746;6.094;2022-08-02T07:35:48;17.20;99.90
12887;DHT22;6511;49.746;6.094;2022-08-02T07:38:14;17.30;99.90
12887;DHT22;6511;49.746;6.094;2022-08-02T07:40:39;17.40;99.90
12887;DHT22;6511;49.746;6.094;2022-08-02T07:43:14;17.40;99.90
12887;DHT22;6511;49.746;6.094;2022-08-02T07:45:41;17.40;99.90
12887;DHT22;6511;49.746;6.094;2022-08-02T07:48:07;17.40;99.90
12887;DHT22;6511;49.746;6.094;2022-08-02T07:50:33;17.40;99.90
12887;DHT22;6511;49.746;6.094;2022-08-02T07:52:59;17.50;99.90
12887;DHT22;6511;49.746;6.094;2022-08-02T07:55:24;17.50;99.90
12887;DHT22;6511;49.746;6.094;2022-08-02T07:57:50;17.60;99.90
12887;DHT22;6511;49.746;6.094;2022-08-02T08:00:16;17.80;99.90
12887;DHT22;6511;49.746;6.094;2022-08-02T08:02:42;17.90;99.90
12887;DHT22;6511;49.746;6.094;2022-08-02T08:05:08;18.00;99.90
12887;DHT22;6511;49.746;6.094;2022-08-02T08:07:33;18.00;99.90
12887;DHT22;6511;49.746;6.094;2022-08-02T08:09:59;18.20;99.90
12887;DHT22;6511;49.746;6.094;2022-08-02T08:12:25;18.30;99.90
12887;DHT22;6511;49.746;6.094;2022-08-02T08:14:51;18.40;99.90
12887;DHT22;6511;49.746;6.094;2022-08-02T08:17:16;18.50;99.90
12887;DHT22;6511;49.746;6.094;2022-08-02T08:19:42;18.50;99.90
12887;DHT22;6511;49.746;6.094;2022-08-02T08:22:07;18.60;99.90
12887;DHT22;6511;49.746;6.094;2022-08-02T08:24:33;18.80;99.90
12887;DHT22;6511;49.746;6.094;2022-08-02T08:26:58;18.90;99.90
12887;DHT22;6511;49.746;6.094;2022-08-02T08:29:24;19.10;99.90
12887;DHT22;6511;49.746;6.094;2022-08-02T08:31:50;19.00;99.90
12887;DHT22;6511;49.746;6.094;2022-08-02T08:34:16;19.30;99.90
12887;DHT22;6511;49.746;6.094;2022-08-02T08:36:42;19.40;99.90
12887;DHT22;6511;49.746;6.094;2022-08-02T08:39:07;19.30;99.90
12887;DHT22;6511;49.746;6.094;2022-08-02T08:41:36;19.30;99.90
12887;DHT22;6511;49.746;6.094;2022-08-02T08:44:02;19.60;99.90
12887;DHT22;6511;49.746;6.094;2022-08-02T08:46:28;19.80;99.90
12887;DHT22;6511;49.746;6.094;2022-08-02T08:48:58;19.90;99.90
12887;DHT22;6511;49.746;6.094;2022-08-02T08:51:24;19.90;99.90
12887;DHT22;6511;49.746;6.094;2022-08-02T08:53:52;20.10;99.90
12887;DHT22;6511;49.746;6.094;2022-08-02T08:56:18;20.20;99.90
12887;DHT22;6511;49.746;6.094;2022-08-02T08:58:44;20.50;99.90
12887;DHT22;6511;49.746;6.094;2022-08-02T09:01:12;20.60;99.90
12887;DHT22;6511;49.746;6.094;2022-08-02T09:03:37;20.80;99.90
12887;DHT22;6511;49.746;6.094;2022-08-02T09:06:03;20.70;99.90
12887;DHT22;6511;49.746;6.094;2022-08-02T09:08:29;20.90;99.90
12887;DHT22;6511;49.746;6.094;2022-08-02T09:10:54;21.00;99.90
12887;DHT22;6511;49.746;6.094;2022-08-02T09:13:20;21.00;99.90
12887;DHT22;6511;49.746;6.094;2022-08-02T09:18:18;21.20;99.90
12887;DHT22;6511;49.746;6.094;2022-08-02T09:20:51;21.00;99.90
12887;DHT22;6511;49.746;6.094;2022-08-02T09:23:17;21.10;99.90
12887;DHT22;6511;49.746;6.094;2022-08-02T09:25:53;20.90;99.90
12887;DHT22;6511;49.746;6.094;2022-08-02T09:28:19;20.90;99.90
12887;DHT22;6511;49.746;6.094;2022-08-02T09:30:45;20.80;99.90
12887;DHT22;6511;49.746;6.094;2022-08-02T09:33:10;21.30;99.90
12887;DHT22;6511;49.746;6.094;2022-08-02T09:35:37;21.60;99.90
12887;DHT22;6511;49.746;6.094;2022-08-02T09:38:13;22.00;99.90
12887;DHT22;6511;49.746;6.094;2022-08-02T09:40:39;22.20;99.90
12887;DHT22;6511;49.746;6.094;2022-08-02T09:43:08;22.40;99.90
12887;DHT22;6511;49.746;6.094;2022-08-02T09:45:34;22.50;99.90
12887;DHT22;6511;49.746;6.094;2022-08-02T09:48:09;22.50;99.90
12887;DHT22;6511;49.746;6.094;2022-08-02T09:50:36;22.30;99.90
12887;DHT22;6511;49.746;6.094;2022-08-02T09:53:02;22.50;99.90
12887;DHT22;6511;49.746;6.094;2022-08-02T09:55:28;22.80;99.90
12887;DHT22;6511;49.746;6.094;2022-08-02T09:57:54;23.00;99.90
12887;DHT22;6511;49.746;6.094;2022-08-02T10:00:20;23.10;99.90
12887;DHT22;6511;49.746;6.094;2022-08-02T10:03:04;23.60;99.90
12887;DHT22;6511;49.746;6.094;2022-08-02T10:05:30;23.70;99.90
12887;DHT22;6511;49.746;6.094;2022-08-02T10:08:09;23.70;99.90
12887;DHT22;6511;49.746;6.094;2022-08-02T10:10:34;23.70;99.90
12887;DHT22;6511;49.746;6.094;2022-08-02T10:13:00;23.90;99.90
12887;DHT22;6511;49.746;6.094;2022-08-02T10:15:25;24.00;99.90
12887;DHT22;6511;49.746;6.094;2022-08-02T10:17:51;24.00;99.90
12887;DHT22;6511;49.746;6.094;2022-08-02T10:20:16;24.30;99.90
12887;DHT22;6511;49.746;6.094;2022-08-02T10:22:42;24.40;99.90
12887;DHT22;6511;49.746;6.094;2022-08-02T10:25:08;24.40;99.90
12887;DHT22;6511;49.746;6.094;2022-08-02T10:27:34;24.50;99.90
12887;DHT22;6511;49.746;6.094;2022-08-02T10:30:00;24.70;99.90
12887;DHT22;6511;49.746;6.094;2022-08-02T10:32:28;24.70;99.90
12887;DHT22;6511;49.746;6.094;2022-08-02T10:34:56;24.70;99.90
12887;DHT22;6511;49.746;6.094;2022-08-02T10:37:25;24.80;99.90
12887;DHT22;6511;49.746;6.094;2022-08-02T10:39:54;24.90;99.90
12887;DHT22;6511;49.746;6.094;2022-08-02T10:42:41;25.10;99.90
12887;DHT22;6511;49.746;6.094;2022-08-02T10:45:08;25.30;99.90
12887;DHT22;6511;49.746;6.094;2022-08-02T10:47:34;25.20;99.90
12887;DHT22;6511;49.746;6.094;2022-08-02T10:50:00;25.20;99.90
12887;DHT22;6511;49.746;6.094;2022-08-02T10:52:26;25.40;99.90
12887;DHT22;6511;49.746;6.094;2022-08-02T10:54:59;25.70;99.90
12887;DHT22;6511;49.746;6.094;2022-08-02T10:57:26;25.70;99.90
12887;DHT22;6511;49.746;6.094;2022-08-02T11:00:34;25.90;99.90
12887;DHT22;6511;49.746;6.094;2022-08-02T11:02:41;25.80;99.90
12887;DHT22;6511;49.746;6.094;2022-08-02T11:05:09;25.90;99.90
12887;DHT22;6511;49.746;6.094;2022-08-02T11:07:45;25.80;99.90
12887;DHT22;6511;49.746;6.094;2022-08-02T11:15:27;25.60;99.90
12887;DHT22;6511;49.746;6.094;2022-08-02T11:17:53;25.60;99.90
12887;DHT22;6511;49.746;6.094;2022-08-02T11:20:19;25.60;99.90
12887;DHT22;6511;49.746;6.094;2022-08-02T11:22:46;25.60;99.90
12887;DHT22;6511;49.746;6.094;2022-08-02T11:27:54;25.90;99.90
12887;DHT22;6511;49.746;6.094;2022-08-02T11:30:20;26.10;99.90
12887;DHT22;6511;49.746;6.094;2022-08-02T11:32:46;26.10;99.90
12887;DHT22;6511;49.746;6.094;2022-08-02T11:35:12;25.80;99.90
12887;DHT22;6511;49.746;6.094;2022-08-02T11:37:38;26.00;99.90
12887;DHT22;6511;49.746;6.094;2022-08-02T11:40:05;26.00;99.90
12887;DHT22;6511;49.746;6.094;2022-08-02T11:44:57;26.20;99.90
12887;DHT22;6511;49.746;6.094;2022-08-02T11:47:23;26.40;99.90
12887;DHT22;6511;49.746;6.094;2022-08-02T11:49:48;26.20;99.90
12887;DHT22;6511;49.746;6.094;2022-08-02T11:52:14;26.50;99.90
12887;DHT22;6511;49.746;6.094;2022-08-02T11:54:41;26.30;99.90
12887;DHT22;6511;49.746;6.094;2022-08-02T11:57:20;26.10;99.90
12887;DHT22;6511;49.746;6.094;2022-08-02T11:59:49;26.10;99.90
12887;DHT22;6511;49.746;6.094;2022-08-02T12:02:16;26.30;99.90
12887;DHT22;6511;49.746;6.094;2022-08-02T12:04:42;26.20;99.90
12887;DHT22;6511;49.746;6.094;2022-08-02T12:07:07;26.50;99.90
12887;DHT22;6511;49.746;6.094;2022-08-02T12:09:34;26.80;99.90
12887;DHT22;6511;49.746;6.094;2022-08-02T12:12:00;26.60;99.90
12887;DHT22;6511;49.746;6.094;2022-08-02T12:14:27;26.70;99.90
12887;DHT22;6511;49.746;6.094;2022-08-02T12:16:53;26.90;99.90
12887;DHT22;6511;49.746;6.094;2022-08-02T12:19:38;26.90;99.90
12887;DHT22;6511;49.746;6.094;2022-08-02T12:24:33;26.70;99.90
12887;DHT22;6511;49.746;6.094;2022-08-02T12:26:58;26.50;99.90
12887;DHT22;6511;49.746;6.094;2022-08-02T12:29:37;26.40;99.90
12887;DHT22;6511;49.746;6.094;2022-08-02T12:32:03;26.50;99.90
12887;DHT22;6511;49.746;6.094;2022-08-02T12:34:30;26.70;99.90
12887;DHT22;6511;49.746;6.094;2022-08-02T12:37:01;26.60;99.90
12887;DHT22;6511;49.746;6.094;2022-08-02T12:39:34;26.90;99.90
12887;DHT22;6511;49.746;6.094;2022-08-02T12:42:00;27.00;99.90
12887;DHT22;6511;49.746;6.094;2022-08-02T12:44:25;27.10;99.90
12887;DHT22;6511;49.746;6.094;2022-08-02T12:46:58;27.30;99.90
12887;DHT22;6511;49.746;6.094;2022-08-02T12:49:24;27.50;99.90
12887;DHT22;6511;49.746;6.094;2022-08-02T12:51:50;27.40;99.90
12887;DHT22;6511;49.746;6.094;2022-08-02T12:54:16;27.20;99.90
12887;DHT22;6511;49.746;6.094;2022-08-02T12:56:43;27.40;99.90
12887;DHT22;6511;49.746;6.094;2022-08-02T12:59:09;27.60;99.90
12887;DHT22;6511;49.746;6.094;2022-08-02T13:01:35;27.50;99.90
12887;DHT22;6511;49.746;6.094;2022-08-02T13:04:01;27.60;99.90
12887;DHT22;6511;49.746;6.094;2022-08-02T13:06:26;27.70;99.90
12887;DHT22;6511;49.746;6.094;2022-08-02T13:08:52;27.40;99.90
12887;DHT22;6511;49.746;6.094;2022-08-02T13:11:20;27.70;99.90
12887;DHT22;6511;49.746;6.094;2022-08-02T13:13:45;27.90;99.90
12887;DHT22;6511;49.746;6.094;2022-08-02T13:16:11;27.80;99.90
12887;DHT22;6511;49.746;6.094;2022-08-02T13:18:37;27.80;99.90
12887;DHT22;6511;49.746;6.094;2022-08-02T13:21:03;27.90;99.90
12887;DHT22;6511;49.746;6.094;2022-08-02T13:23:31;27.90;99.90
12887;DHT22;6511;49.746;6.094;2022-08-02T13:25:57;28.00;99.90
12887;DHT22;6511;49.746;6.094;2022-08-02T13:28:22;28.10;99.90
12887;DHT22;6511;49.746;6.094;2022-08-02T13:30:48;27.80;99.90
12887;DHT22;6511;49.746;6.094;2022-08-02T13:33:14;28.00;99.90
12887;DHT22;6511;49.746;6.094;2022-08-02T13:35:40;28.40;99.90
12887;DHT22;6511;49.746;6.094;2022-08-02T13:38:06;28.90;99.90
12887;DHT22;6511;49.746;6.094;2022-08-02T13:40:32;29.00;99.90
12887;DHT22;6511;49.746;6.094;2022-08-02T13:42:57;28.80;99.90
12887;DHT22;6511;49.746;6.094;2022-08-02T13:45:23;28.90;99.90
12887;DHT22;6511;49.746;6.094;2022-08-02T13:47:48;28.90;99.90
12887;DHT22;6511;49.746;6.094;2022-08-02T13:50:14;28.90;99.90
12887;DHT22;6511;49.746;6.094;2022-08-02T13:52:46;28.50;99.90
12887;DHT22;6511;49.746;6.094;2022-08-02T13:55:13;28.30;99.90
12887;DHT22;6511;49.746;6.094;2022-08-02T13:57:38;28.20;99.90
12887;DHT22;6511;49.746;6.094;2022-08-02T14:00:04;28.30;99.90
12887;DHT22;6511;49.746;6.094;2022-08-02T14:02:30;28.30;99.90
12887;DHT22;6511;49.746;6.094;2022-08-02T14:04:55;28.40;99.90
12887;DHT22;6511;49.746;6.094;2022-08-02T14:07:21;28.40;99.90
12887;DHT22;6511;49.746;6.094;2022-08-02T14:09:47;28.30;99.90
12887;DHT22;6511;49.746;6.094;2022-08-02T14:12:12;28.40;99.90
12887;DHT22;6511;49.746;6.094;2022-08-02T14:14:38;28.50;99.90
12887;DHT22;6511;49.746;6.094;2022-08-02T14:17:04;28.30;99.90
12887;DHT22;6511;49.746;6.094;2022-08-02T14:19:29;28.40;99.90
12887;DHT22;6511;49.746;6.094;2022-08-02T14:21:56;28.40;99.90
12887;DHT22;6511;49.746;6.094;2022-08-02T14:24:22;28.50;99.90
12887;DHT22;6511;49.746;6.094;2022-08-02T14:26:48;28.80;99.90
12887;DHT22;6511;49.746;6.094;2022-08-02T14:29:14;29.00;99.90
12887;DHT22;6511;49.746;6.094;2022-08-02T14:31:39;28.60;99.90
12887;DHT22;6511;49.746;6.094;2022-08-02T14:34:05;28.50;99.90
12887;DHT22;6511;49.746;6.094;2022-08-02T14:36:31;28.70;99.90
12887;DHT22;6511;49.746;6.094;2022-08-02T14:38:56;28.50;99.90
12887;DHT22;6511;49.746;6.094;2022-08-02T14:41:22;28.30;99.90
12887;DHT22;6511;49.746;6.094;2022-08-02T14:43:47;28.40;99.90
12887;DHT22;6511;49.746;6.094;2022-08-02T14:46:28;28.70;99.90
12887;DHT22;6511;49.746;6.094;2022-08-02T14:48:54;28.70;99.90
12887;DHT22;6511;49.746;6.094;2022-08-02T14:51:20;28.70;99.90
12887;DHT22;6511;49.746;6.094;2022-08-02T14:53:45;28.50;99.90
12887;DHT22;6511;49.746;6.094;2022-08-02T14:56:11;28.50;99.90
12887;DHT22;6511;49.746;6.094;2022-08-02T14:58:36;28.40;99.90
12887;DHT22;6511;49.746;6.094;2022-08-02T15:01:02;28.30;99.90
12887;DHT22;6511;49.746;6.094;2022-08-02T15:03:28;28.40;99.90
12887;DHT22;6511;49.746;6.094;2022-08-02T15:05:54;28.70;99.90
12887;DHT22;6511;49.746;6.094;2022-08-02T15:08:19;29.00;99.90
12887;DHT22;6511;49.746;6.094;2022-08-02T15:10:45;28.50;99.90
12887;DHT22;6511;49.746;6.094;2022-08-02T15:13:10;28.20;99.90
12887;DHT22;6511;49.746;6.094;2022-08-02T15:15:36;28.20;99.90
12887;DHT22;6511;49.746;6.094;2022-08-02T15:18:02;28.30;99.90
12887;DHT22;6511;49.746;6.094;2022-08-02T15:20:27;28.40;99.90
12887;DHT22;6511;49.746;6.094;2022-08-02T15:22:53;28.50;99.90
12887;DHT22;6511;49.746;6.094;2022-08-02T15:25:19;28.70;99.90
12887;DHT22;6511;49.746;6.094;2022-08-02T15:27:45;28.60;99.90
12887;DHT22;6511;49.746;6.094;2022-08-02T15:30:10;28.30;99.90
12887;DHT22;6511;49.746;6.094;2022-08-02T15:32:36;28.20;99.90
12887;DHT22;6511;49.746;6.094;2022-08-02T15:35:02;28.10;99.90
12887;DHT22;6511;49.746;6.094;2022-08-02T15:37:27;28.20;99.90
12887;DHT22;6511;49.746;6.094;2022-08-02T15:39:53;28.10;99.90
12887;DHT22;6511;49.746;6.094;2022-08-02T15:42:18;28.30;99.90
12887;DHT22;6511;49.746;6.094;2022-08-02T15:44:44;28.40;99.90
12887;DHT22;6511;49.746;6.094;2022-08-02T15:47:09;28.10;99.90
12887;DHT22;6511;49.746;6.094;2022-08-02T15:49:35;28.10;99.90
12887;DHT22;6511;49.746;6.094;2022-08-02T15:52:01;28.10;99.90
12887;DHT22;6511;49.746;6.094;2022-08-02T15:54:26;28.30;99.90
12887;DHT22;6511;49.746;6.094;2022-08-02T15:56:52;28.40;99.90
12887;DHT22;6511;49.746;6.094;2022-08-02T15:59:18;28.70;99.90
12887;DHT22;6511;49.746;6.094;2022-08-02T16:01:43;28.70;99.90
12887;DHT22;6511;49.746;6.094;2022-08-02T16:04:09;28.60;99.90
12887;DHT22;6511;49.746;6.094;2022-08-02T16:06:34;28.40;99.90
12887;DHT22;6511;49.746;6.094;2022-08-02T16:09:00;28.20;99.90
12887;DHT22;6511;49.746;6.094;2022-08-02T16:11:26;28.30;99.90
12887;DHT22;6511;49.746;6.094;2022-08-02T16:13:51;28.60;99.90
12887;DHT22;6511;49.746;6.094;2022-08-02T16:16:18;28.30;99.90
12887;DHT22;6511;49.746;6.094;2022-08-02T16:18:44;28.20;99.90
12887;DHT22;6511;49.746;6.094;2022-08-02T16:21:10;28.40;99.90
12887;DHT22;6511;49.746;6.094;2022-08-02T16:23:35;28.30;99.90